| time (UTC) | temp C | wind direction | speed KPH | gust KPH | rain 1hr cm | rain 24hr cm | rain mn cm | humidity % | barometer mb |
| 20260903190458 | 22 | 108 | 0.0 | 3.2 | 0.08 | 0.74 | 0.74 | 90 | 1014.4 |
| 20260903182959 | 24 | 211 | 1.6 | 6.4 | 0.61 | 0.66 | 0.66 | 89 | 1014.9 |
| 20260903182458 | 25 | 212 | 1.6 | 8.0 | 0.61 | 0.66 | 0.66 | 89 | 1014.7 |
| 20260903181958 | 24 | 211 | 1.6 | 8.0 | 0.61 | 0.66 | 0.66 | 89 | 1014.2 |
| 20260903181458 | 24 | 245 | 3.2 | 12.9 | 0.61 | 0.66 | 0.66 | 88 | 1013.9 |
| 20260903180959 | 24 | 328 | 3.2 | 16.1 | 0.61 | 0.66 | 0.66 | 87 | 1013.9 |
| 20260903180458 | 25 | 320 | 4.8 | 24.1 | 0.61 | 0.66 | 0.66 | 86 | 1013.9 |
| 20260903180001 | 26 | 234 | 3.2 | 25.7 | 0.61 | 0.66 | 0.66 | 82 | 1014.0 |
| 20260903175459 | 28 | 328 | 8.0 | 25.7 | 0.53 | 0.58 | 0.58 | 81 | 1014.1 |
| 20260903174958 | 28 | 220 | 3.2 | 12.9 | 0.46 | 0.51 | 0.51 | 80 | 1014.1 |
| 20260903174458 | 29 | 340 | 3.2 | 17.7 | 0.13 | 0.18 | 0.18 | 80 | 1013.7 |
| 20260903173957 | 29 | 289 | 4.8 | 16.1 | 0.03 | 0.08 | 0.08 | 79 | 1013.3 |
| 20260903173458 | 29 | 253 | 4.8 | 16.1 | 0.00 | 0.05 | 0.05 | 77 | 1013.2 |
| 20260903172959 | 30 | 13 | 8.0 | 14.5 | 0.00 | 0.05 | 0.05 | 76 | 1013.0 |
| 20260903172458 | 30 | 314 | 4.8 | 12.9 | 0.00 | 0.05 | 0.05 | 79 | 1012.6 |
| 20260903171958 | 30 | 10 | 3.2 | 12.9 | 0.00 | 0.05 | 0.05 | 80 | 1012.6 |
| 20260903171458 | 29 | 336 | 3.2 | 16.1 | 0.00 | 0.05 | 0.05 | 80 | 1012.7 |
| 20260903170959 | 29 | 281 | 4.8 | 16.1 | 0.00 | 0.05 | 0.05 | 79 | 1013.0 |
| 20260903170458 | 30 | 280 | 3.2 | 9.7 | 0.00 | 0.05 | 0.05 | 78 | 1012.8 |
| 20260903165958 | 30 | 213 | 3.2 | 8.0 | 0.00 | 0.05 | 0.05 | 78 | 1012.7 |
| 20260903165459 | 30 | 188 | 3.2 | 12.9 | 0.00 | 0.05 | 0.05 | 82 | 1012.3 |
| 20260903161958 | 29 | 242 | 1.6 | 9.7 | 0.00 | 0.05 | 0.05 | 85 | 1011.6 |
| 20260903161458 | 28 | 184 | 0.0 | 9.7 | 0.00 | 0.05 | 0.05 | 85 | 1011.9 |
| 20260903160958 | 28 | 305 | 4.8 | 9.7 | 0.00 | 0.05 | 0.05 | 86 | 1012.1 |
| 20260903160458 | 27 | 206 | 1.6 | 6.4 | 0.00 | 0.05 | 0.05 | 87 | 1012.0 |
| 20260903155959 | 27 | 151 | 1.6 | 6.4 | 0.00 | 0.05 | 0.05 | 87 | 1011.9 |
| 20260903155458 | 27 | 266 | 1.6 | 4.8 | 0.00 | 0.05 | 0.05 | 88 | 1012.0 |
| 20260903154959 | 27 | 145 | 0.0 | 4.8 | 0.00 | 0.05 | 0.05 | 89 | 1011.9 |
| 20260903154458 | 26 | 97 | 1.6 | 4.8 | 0.00 | 0.05 | 0.05 | 89 | 1012.1 |
| 20260903153958 | 26 | 18 | 1.6 | 4.8 | 0.00 | 0.05 | 0.05 | 88 | 1011.9 |
| 20260903153458 | 26 | 236 | 0.0 | 3.2 | 0.00 | 0.05 | 0.05 | 90 | 1011.9 |
| 20260903152959 | 26 | 215 | 0.0 | 0.0 | 0.00 | 0.05 | 0.05 | 89 | 1012.1 |
| 20260903152458 | 26 | 215 | 0.0 | 1.6 | 0.00 | 0.05 | 0.05 | 90 | 1012.1 |
| 20260903151958 | 26 | 227 | 0.0 | 1.6 | 0.00 | 0.05 | 0.05 | 90 | 1012.3 |
| 20260903151458 | 26 | 227 | 0.0 | 1.6 | 0.00 | 0.05 | 0.05 | 90 | 1012.3 |
| 20260903143958 | 25 | 106 | 0.0 | 1.6 | 0.00 | 0.05 | 0.05 | 90 | 1012.7 |
| 20260903143458 | 25 | 109 | 0.0 | 1.6 | 0.00 | 0.05 | 0.05 | 90 | 1012.7 |
| 20260903142958 | 25 | 44 | 0.0 | 1.6 | 0.00 | 0.05 | 0.05 | 91 | 1012.7 |
| 20260903142458 | 25 | 44 | 0.0 | 3.2 | 0.00 | 0.05 | 0.05 | 91 | 1012.7 |
| 20260903141958 | 25 | 44 | 1.6 | 3.2 | 0.00 | 0.05 | 0.05 | 91 | 1012.7 |
| 20260903141458 | 25 | 81 | 0.0 | 3.2 | 0.00 | 0.05 | 0.05 | 92 | 1012.5 |
| 20260903140958 | 25 | 79 | 0.0 | 3.2 | 0.00 | 0.05 | 0.05 | 92 | 1012.5 |
| 20260903140458 | 24 | 12 | 0.0 | 3.2 | 0.00 | 0.05 | 0.05 | 92 | 1012.7 |
| 20260903135958 | 24 | 64 | 0.0 | 1.6 | 0.00 | 0.05 | 0.05 | 92 | 1012.8 |
| 20260903135457 | 24 | 70 | 0.0 | 4.8 | 0.00 | 0.05 | 0.05 | 92 | 1012.6 |
| 20260903134959 | 24 | 52 | 0.0 | 4.8 | 0.05 | 0.05 | 0.05 | 93 | 1012.6 |
| 20260903134458 | 23 | 28 | 1.6 | 3.2 | 0.05 | 0.05 | 0.05 | 92 | 1012.5 |
| 20260903133959 | 23 | 43 | 1.6 | 3.2 | 0.05 | 0.05 | 0.05 | 92 | 1012.5 |
| 20260903133458 | 23 | 51 | 1.6 | 3.2 | 0.05 | 0.05 | 0.05 | 92 | 1012.7 |
| 20260903132958 | 23 | 66 | 0.0 | 3.2 | 0.05 | 0.05 | 0.05 | 92 | 1012.9 |
| 20260903132458 | 23 | 266 | 0.0 | 1.6 | 0.05 | 0.05 | 0.05 | 92 | 1013.1 |
| 20260903131957 | 23 | 266 | 0.0 | 1.6 | 0.05 | 0.05 | 0.05 | 92 | 1013.1 |
| 20260903131459 | 22 | 266 | 0.0 | 1.6 | 0.05 | 0.05 | 0.05 | 92 | 1013.0 |
| 20260903130958 | 22 | 266 | 0.0 | 1.6 | 0.05 | 0.05 | 0.05 | 92 | 1013.0 |
| 20260903130457 | 22 | 266 | 0.0 | 1.6 | 0.05 | 0.05 | 0.05 | 92 | 1013.0 |
| 20260903125958 | 22 | 266 | 0.0 | 1.6 | 0.05 | 0.05 | 0.05 | 92 | 1012.8 |
| 20260903125457 | 22 | 266 | 0.0 | 1.6 | 0.05 | 0.05 | 0.05 | 92 | 1012.7 |
| 20260903124958 | 22 | 266 | 0.0 | 0.0 | 0.00 | 0.00 | 0.00 | 92 | 1012.8 |
| 20260903124458 | 22 | 266 | 0.0 | 0.0 | 0.00 | 0.00 | 0.00 | 92 | 1012.7 |
| 20260903123957 | 22 | 266 | 0.0 | 0.0 | 0.00 | 0.00 | 0.00 | 92 | 1012.8 |
| 20260903123457 | 22 | 266 | 0.0 | 0.0 | 0.00 | 0.00 | 0.00 | 92 | 1012.8 |
| 20260903122958 | 22 | 266 | 0.0 | 0.0 | 0.00 | 0.00 | 0.00 | 93 | 1013.0 |
| 20260903122459 | 21 | 266 | 0.0 | 0.0 | 0.00 | 0.00 | 0.00 | 92 | 1013.0 |
| 20260903121958 | 21 | 266 | 0.0 | 0.0 | 0.00 | 0.00 | 0.00 | 92 | 1013.0 |
| 20260903121458 | 21 | 266 | 0.0 | 0.0 | 0.00 | 0.00 | 0.00 | 92 | 1013.0 |
| 20260903120958 | 21 | 266 | 0.0 | 0.0 | 0.00 | 0.00 | 0.00 | 92 | 1013.0 |
| 20260903120458 | 21 | 266 | 0.0 | 1.6 | 0.00 | 0.00 | 0.00 | 92 | 1013.0 |
| 20260903115958 | 20 | 266 | 0.0 | 0.0 | 0.00 | 0.00 | 0.00 | 92 | 1013.0 |
| 20260903115457 | 20 | 266 | 0.0 | 0.0 | 0.00 | 0.00 | 0.00 | 91 | 1013.0 |
| 20260903114958 | 20 | 266 | 0.0 | 0.0 | 0.00 | 0.00 | 0.00 | 91 | 1013.0 |
| 20260903114459 | 20 | 266 | 0.0 | 1.6 | 0.00 | 0.00 | 0.00 | 91 | 1013.0 |
| 20260903114000 | 20 | 266 | 0.0 | 1.6 | 0.00 | 0.00 | 0.00 | 91 | 1012.9 |
| 20260903113458 | 20 | 266 | 0.0 | 1.6 | 0.00 | 0.00 | 0.00 | 92 | 1012.8 |
| 20260903112959 | 20 | 266 | 0.0 | 0.0 | 0.00 | 0.00 | 0.00 | 91 | 1012.8 |
| 20260903112458 | 20 | 266 | 0.0 | 0.0 | 0.00 | 0.00 | 0.00 | 91 | 1012.7 |
| 20260903111958 | 20 | 266 | 0.0 | 0.0 | 0.00 | 0.00 | 0.00 | 91 | 1012.7 |
| 20260903111458 | 20 | 266 | 0.0 | 0.0 | 0.00 | 0.00 | 0.00 | 91 | 1012.7 |
| 20260903110958 | 20 | 266 | 0.0 | 0.0 | 0.00 | 0.00 | 0.00 | 91 | 1012.6 |
| 20260903110457 | 20 | 266 | 0.0 | 0.0 | 0.00 | 0.00 | 0.00 | 91 | 1012.6 |
| 20260903105959 | 20 | 266 | 0.0 | 1.6 | 0.00 | 0.00 | 0.00 | 91 | 1012.7 |
| 20260903105458 | 20 | 266 | 0.0 | 1.6 | 0.00 | 0.00 | 0.00 | 91 | 1012.6 |
| 20260903101958 | 20 | 266 | 0.0 | 0.0 | 0.00 | 0.00 | 0.00 | 91 | 1012.7 |
| 20260903101459 | 20 | 266 | 0.0 | 0.0 | 0.00 | 0.00 | 0.00 | 91 | 1012.5 |
| 20260903100957 | 20 | 266 | 0.0 | 0.0 | 0.00 | 0.00 | 0.00 | 91 | 1012.6 |
| 20260903100457 | 20 | 266 | 0.0 | 0.0 | 0.00 | 0.00 | 0.00 | 91 | 1012.6 |
| 20260903095958 | 20 | 266 | 0.0 | 0.0 | 0.00 | 0.00 | 0.00 | 91 | 1012.6 |
| 20260903095457 | 20 | 266 | 0.0 | 0.0 | 0.00 | 0.00 | 0.00 | 91 | 1012.7 |
| 20260903094958 | 20 | 266 | 0.0 | 0.0 | 0.00 | 0.00 | 0.00 | 91 | 1012.7 |
| 20260903094458 | 20 | 266 | 0.0 | 0.0 | 0.00 | 0.00 | 0.00 | 91 | 1012.7 |
| 20260903093958 | 21 | 266 | 0.0 | 0.0 | 0.00 | 0.00 | 0.00 | 91 | 1012.6 |
| 20260903093457 | 20 | 266 | 0.0 | 0.0 | 0.00 | 0.00 | 0.00 | 91 | 1012.6 |
| 20260903092958 | 21 | 266 | 0.0 | 0.0 | 0.00 | 0.00 | 0.00 | 91 | 1012.7 |
| 20260903092457 | 21 | 266 | 0.0 | 0.0 | 0.00 | 0.00 | 0.00 | 91 | 1012.6 |
| 20260903091959 | 21 | 266 | 0.0 | 0.0 | 0.00 | 0.00 | 0.00 | 91 | 1012.7 |
| 20260903091458 | 21 | 266 | 0.0 | 0.0 | 0.00 | 0.00 | 0.00 | 91 | 1012.6 |
| 20260903090958 | 21 | 266 | 0.0 | 0.0 | 0.00 | 0.00 | 0.00 | 91 | 1012.5 |
| 20260903090458 | 21 | 266 | 0.0 | 0.0 | 0.00 | 0.00 | 0.00 | 91 | 1012.6 |
| 20260903090000 | 21 | 266 | 0.0 | 0.0 | 0.00 | 0.00 | 0.00 | 91 | 1012.6 |
| 20260903085458 | 21 | 266 | 0.0 | 0.0 | 0.00 | 0.00 | 0.00 | 91 | 1012.6 |
| 20260903084959 | 21 | 266 | 0.0 | 0.0 | 0.00 | 0.00 | 0.00 | 91 | 1012.7 |
| 20260903084458 | 21 | 266 | 0.0 | 0.0 | 0.00 | 0.00 | 0.00 | 90 | 1012.7 |
| 20260903083958 | 21 | 266 | 0.0 | 0.0 | 0.00 | 0.00 | 0.00 | 90 | 1012.5 |
| 20260903083458 | 21 | 266 | 0.0 | 0.0 | 0.00 | 0.00 | 0.00 | 90 | 1012.6 |
| 20260903082959 | 21 | 266 | 0.0 | 0.0 | 0.00 | 0.00 | 0.00 | 90 | 1012.7 |
| 20260903082458 | 21 | 266 | 0.0 | 0.0 | 0.00 | 0.00 | 0.00 | 90 | 1012.7 |
| 20260903081958 | 21 | 266 | 0.0 | 0.0 | 0.00 | 0.00 | 0.00 | 90 | 1012.6 |
| 20260903081459 | 21 | 266 | 0.0 | 0.0 | 0.00 | 0.00 | 0.00 | 90 | 1012.5 |
| 20260903080959 | 21 | 266 | 0.0 | 0.0 | 0.00 | 0.00 | 0.00 | 91 | 1012.5 |
| 20260903080458 | 21 | 266 | 0.0 | 0.0 | 0.00 | 0.00 | 0.00 | 90 | 1012.5 |
| 20260903075959 | 21 | 266 | 0.0 | 0.0 | 0.00 | 0.00 | 0.00 | 90 | 1012.5 |
| 20260903075458 | 21 | 266 | 0.0 | 0.0 | 0.00 | 0.00 | 0.00 | 90 | 1012.6 |
| 20260903074958 | 21 | 266 | 0.0 | 0.0 | 0.00 | 0.00 | 0.00 | 90 | 1012.5 |
| 20260903074458 | 21 | 266 | 0.0 | 0.0 | 0.00 | 0.00 | 0.00 | 90 | 1012.5 |
| 20260903070957 | 21 | 266 | 0.0 | 0.0 | 0.00 | 0.00 | 0.00 | 90 | 1012.3 |
| 20260903070458 | 21 | 266 | 0.0 | 0.0 | 0.00 | 0.00 | 0.00 | 90 | 1012.3 |
| 20260903065958 | 21 | 266 | 0.0 | 0.0 | 0.00 | 0.00 | 0.00 | 90 | 1012.2 |
| 20260903065458 | 21 | 266 | 0.0 | 0.0 | 0.00 | 0.00 | 0.00 | 90 | 1012.3 |
| 20260903064957 | 21 | 266 | 0.0 | 0.0 | 0.00 | 0.00 | 0.00 | 90 | 1012.3 |
| 20260903064457 | 21 | 266 | 0.0 | 0.0 | 0.00 | 0.00 | 0.00 | 90 | 1012.3 |
| 20260903063957 | 21 | 266 | 0.0 | 0.0 | 0.00 | 0.00 | 0.00 | 90 | 1012.4 |
| 20260903063458 | 21 | 266 | 0.0 | 0.0 | 0.00 | 0.00 | 0.00 | 90 | 1012.4 |
| 20260903062957 | 21 | 266 | 0.0 | 0.0 | 0.00 | 0.00 | 0.00 | 89 | 1012.4 |
| 20260903062457 | 21 | 266 | 0.0 | 0.0 | 0.00 | 0.00 | 0.00 | 89 | 1012.4 |
| 20260903061958 | 21 | 266 | 0.0 | 0.0 | 0.00 | 0.00 | 0.00 | 89 | 1012.4 |
| 20260903061457 | 21 | 266 | 0.0 | 0.0 | 0.00 | 0.00 | 0.00 | 89 | 1012.4 |
| 20260903060958 | 21 | 266 | 0.0 | 0.0 | 0.00 | 0.00 | 0.00 | 89 | 1012.4 |
| 20260903060457 | 21 | 266 | 0.0 | 0.0 | 0.00 | 0.00 | 0.00 | 89 | 1012.4 |
| 20260903055958 | 21 | 266 | 0.0 | 0.0 | 0.00 | 0.00 | 0.00 | 89 | 1012.4 |
| 20260903055458 | 21 | 266 | 0.0 | 0.0 | 0.00 | 0.00 | 0.00 | 89 | 1012.4 |
| 20260903054958 | 21 | 266 | 0.0 | 0.0 | 0.00 | 0.00 | 0.00 | 89 | 1012.4 |
| 20260903054458 | 21 | 266 | 0.0 | 0.0 | 0.00 | 0.00 | 0.00 | 89 | 1012.4 |
| 20260903053958 | 21 | 266 | 0.0 | 0.0 | 0.00 | 0.00 | 0.00 | 89 | 1012.4 |
| 20260903050457 | 21 | 266 | 0.0 | 0.0 | 0.00 | 0.00 | 0.00 | 88 | 1012.3 |
| 20260903045958 | 21 | 266 | 0.0 | 0.0 | 0.00 | 0.00 | 0.00 | 88 | 1012.3 |
| 20260903045457 | 21 | 266 | 0.0 | 0.0 | 0.00 | 0.00 | 0.00 | 88 | 1012.2 |
| 20260903044957 | 21 | 266 | 0.0 | 0.0 | 0.00 | 0.00 | 0.00 | 88 | 1012.1 |
| 20260903044457 | 21 | 266 | 0.0 | 0.0 | 0.00 | 0.00 | 0.00 | 88 | 1012.1 |
| 20260903043957 | 22 | 266 | 0.0 | 0.0 | 0.00 | 0.00 | 0.00 | 88 | 1012.0 |
| 20260903043457 | 22 | 266 | 0.0 | 0.0 | 0.00 | 0.00 | 0.00 | 88 | 1012.0 |
| 20260903042959 | 22 | 266 | 0.0 | 0.0 | 0.00 | 0.00 | 0.00 | 88 | 1012.0 |
| 20260903042458 | 22 | 266 | 0.0 | 0.0 | 0.00 | 0.00 | 0.00 | 88 | 1011.9 |
| 20260903041957 | 22 | 266 | 0.0 | 0.0 | 0.00 | 0.00 | 0.00 | 88 | 1011.9 |
| 20260903041458 | 22 | 266 | 0.0 | 1.6 | 0.00 | 0.00 | 0.00 | 88 | 1011.9 |
| 20260903040958 | 22 | 266 | 0.0 | 1.6 | 0.00 | 0.00 | 0.00 | 88 | 1011.8 |
| 20260903040458 | 22 | 266 | 0.0 | 0.0 | 0.00 | 0.00 | 0.00 | 88 | 1011.9 |
| 20260903040003 | 22 | 266 | 0.0 | 0.0 | 0.00 | 0.00 | 0.00 | 88 | 1011.8 |
| 20260903035500 | 22 | 266 | 0.0 | 0.0 | 0.00 | 0.00 | 0.00 | 88 | 1011.7 |
| 20260903034959 | 22 | 266 | 0.0 | 0.0 | 0.00 | 0.00 | 0.00 | 88 | 1011.7 |
| 20260903034459 | 22 | 266 | 0.0 | 0.0 | 0.00 | 0.00 | 0.00 | 88 | 1011.8 |
| 20260903033959 | 22 | 266 | 0.0 | 0.0 | 0.00 | 0.00 | 0.00 | 88 | 1011.7 |
| 20260903033459 | 23 | 266 | 0.0 | 0.0 | 0.00 | 0.00 | 0.00 | 88 | 1011.7 |
| 20260903032959 | 23 | 266 | 0.0 | 0.0 | 0.00 | 0.00 | 0.00 | 88 | 1011.8 |
| 20260903032500 | 23 | 266 | 0.0 | 0.0 | 0.00 | 0.00 | 0.00 | 88 | 1011.7 |
| 20260903031959 | 23 | 266 | 0.0 | 0.0 | 0.00 | 0.00 | 0.00 | 88 | 1011.7 |
| 20260903031459 | 23 | 266 | 0.0 | 0.0 | 0.00 | 0.00 | 0.00 | 88 | 1011.8 |
| 20260903030959 | 23 | 266 | 0.0 | 0.0 | 0.00 | 0.00 | 0.00 | 88 | 1011.8 |
| 20260903030459 | 23 | 266 | 0.0 | 0.0 | 0.00 | 0.00 | 0.00 | 88 | 1011.9 |
| 20260903022958 | 24 | 266 | 0.0 | 0.0 | 0.00 | 0.00 | 0.00 | 86 | 1012.1 |
| 20260903022458 | 24 | 266 | 0.0 | 0.0 | 0.00 | 0.00 | 0.00 | 86 | 1012.1 |
| 20260903021958 | 24 | 266 | 0.0 | 0.0 | 0.00 | 0.00 | 0.00 | 86 | 1012.1 |
| 20260903021459 | 24 | 266 | 0.0 | 0.0 | 0.00 | 0.00 | 0.00 | 86 | 1012.1 |
| 20260903020958 | 24 | 266 | 0.0 | 0.0 | 0.00 | 0.00 | 0.00 | 86 | 1012.1 |
| 20260903020458 | 24 | 266 | 0.0 | 0.0 | 0.00 | 0.00 | 0.00 | 86 | 1012.1 |
| 20260903020000 | 24 | 266 | 0.0 | 0.0 | 0.00 | 0.00 | 0.00 | 86 | 1012.1 |
| 20260903015459 | 25 | 266 | 0.0 | 0.0 | 0.00 | 0.00 | 0.00 | 86 | 1012.1 |
| 20260903015000 | 25 | 266 | 0.0 | 0.0 | 0.00 | 0.00 | 0.00 | 86 | 1012.0 |
| 20260903014459 | 25 | 266 | 0.0 | 0.0 | 0.00 | 0.00 | 0.00 | 86 | 1012.0 |
| 20260903014000 | 25 | 266 | 0.0 | 1.6 | 0.00 | 0.00 | 0.00 | 86 | 1011.9 |
| 20260903013500 | 25 | 266 | 0.0 | 1.6 | 0.00 | 0.00 | 0.00 | 86 | 1011.9 |
| 20260903012959 | 25 | 266 | 0.0 | 1.6 | 0.00 | 0.00 | 0.00 | 86 | 1011.9 |
| 20260903012500 | 25 | 266 | 0.0 | 1.6 | 0.00 | 0.00 | 0.00 | 86 | 1011.9 |
| 20260903011959 | 25 | 259 | 0.0 | 3.2 | 0.00 | 0.00 | 0.00 | 85 | 1011.8 |
| 20260903011459 | 25 | 207 | 0.0 | 3.2 | 0.00 | 0.00 | 0.00 | 85 | 1011.8 |
| 20260903010959 | 25 | 212 | 0.0 | 1.6 | 0.00 | 0.00 | 0.00 | 85 | 1011.6 |
| 20260903010500 | 25 | 212 | 0.0 | 1.6 | 0.00 | 0.00 | 0.00 | 85 | 1011.8 |
| 20260903010000 | 25 | 212 | 0.0 | 1.6 | 0.00 | 0.00 | 0.00 | 84 | 1011.8 |
| 20260903005459 | 26 | 288 | 0.0 | 0.0 | 0.00 | 0.00 | 0.00 | 84 | 1011.6 |
| 20260903004958 | 26 | 288 | 0.0 | 0.0 | 0.00 | 0.00 | 0.00 | 84 | 1011.4 |
| 20260903004458 | 26 | 288 | 0.0 | 0.0 | 0.00 | 0.00 | 0.00 | 83 | 1011.5 |
| 20260903003958 | 26 | 288 | 0.0 | 1.6 | 0.00 | 0.00 | 0.00 | 83 | 1011.3 |
| 20260903003458 | 26 | 288 | 0.0 | 1.6 | 0.00 | 0.00 | 0.00 | 83 | 1011.3 |
| 20260903002958 | 26 | 288 | 0.0 | 1.6 | 0.00 | 0.00 | 0.00 | 83 | 1011.2 |
| 20260903002459 | 26 | 288 | 0.0 | 1.6 | 0.00 | 0.00 | 0.00 | 82 | 1011.2 |
| 20260902234459 | 27 | 266 | 0.0 | 3.2 | 0.00 | 0.00 | 0.00 | 81 | 1011.4 |
| 20260902233958 | 27 | 290 | 0.0 | 3.2 | 0.00 | 0.00 | 0.00 | 81 | 1011.2 |
| 20260902233459 | 27 | 336 | 0.0 | 3.2 | 0.00 | 0.00 | 0.00 | 80 | 1011.1 |
| 20260902232958 | 27 | 330 | 0.0 | 3.2 | 0.00 | 0.00 | 0.00 | 80 | 1011.1 |
| 20260902232459 | 27 | 324 | 1.6 | 3.2 | 0.00 | 0.00 | 0.00 | 81 | 1011.0 |
| 20260902231958 | 27 | 307 | 0.0 | 3.2 | 0.00 | 0.00 | 0.00 | 81 | 1011.0 |
| 20260902231458 | 27 | 276 | 0.0 | 1.6 | 0.00 | 0.00 | 0.00 | 80 | 1010.9 |
| 20260902230958 | 27 | 311 | 0.0 | 4.8 | 0.00 | 0.00 | 0.00 | 81 | 1010.9 |
| 20260902230458 | 27 | 258 | 1.6 | 4.8 | 0.00 | 0.00 | 0.00 | 80 | 1011.0 |
| 20260902225958 | 27 | 266 | 0.0 | 1.6 | 0.00 | 0.00 | 0.00 | 81 | 1011.0 |
| 20260902225458 | 27 | 255 | 0.0 | 1.6 | 0.00 | 0.00 | 0.00 | 81 | 1011.1 |
| 20260902224958 | 27 | 323 | 0.0 | 4.8 | 0.00 | 0.00 | 0.00 | 81 | 1011.0 |
| 20260902224459 | 27 | 4 | 0.0 | 4.8 | 0.00 | 0.00 | 0.00 | 80 | 1011.1 |
| 20260902223958 | 27 | 236 | 1.6 | 4.8 | 0.00 | 0.00 | 0.00 | 80 | 1011.2 |
| 20260902223458 | 27 | 243 | 0.0 | 1.6 | 0.00 | 0.00 | 0.00 | 80 | 1011.4 |
| 20260902222958 | 27 | 302 | 0.0 | 3.2 | 0.00 | 0.00 | 0.00 | 80 | 1011.4 |
| 20260902222458 | 27 | 234 | 0.0 | 4.8 | 0.00 | 0.00 | 0.00 | 79 | 1011.3 |
| 20260902221959 | 27 | 306 | 0.0 | 4.8 | 0.00 | 0.00 | 0.00 | 79 | 1011.2 |
| 20260902221457 | 27 | 283 | 0.0 | 9.7 | 0.00 | 0.00 | 0.00 | 79 | 1011.4 |
| 20260902220958 | 27 | 253 | 1.6 | 9.7 | 0.00 | 0.00 | 0.00 | 78 | 1011.6 |
| 20260902220458 | 27 | 341 | 1.6 | 8.0 | 0.00 | 0.00 | 0.00 | 78 | 1011.8 |
| 20260902215959 | 28 | 281 | 1.6 | 6.4 | 0.00 | 0.00 | 0.00 | 77 | 1011.6 |
| 20260902215458 | 28 | 228 | 1.6 | 12.9 | 0.00 | 0.00 | 0.00 | 78 | 1011.7 |
| 20260902214958 | 28 | 280 | 0.0 | 6.4 | 0.00 | 0.00 | 0.00 | 78 | 1011.6 |
| 20260902214458 | 28 | 215 | 1.6 | 9.7 | 0.00 | 0.00 | 0.00 | 78 | 1011.3 |
| 20260902213958 | 28 | 326 | 1.6 | 6.4 | 0.00 | 0.00 | 0.00 | 78 | 1011.2 |
| 20260902213458 | 28 | 249 | 1.6 | 6.4 | 0.00 | 0.00 | 0.00 | 77 | 1011.3 |
| 20260902212958 | 28 | 260 | 1.6 | 6.4 | 0.00 | 0.00 | 0.00 | 78 | 1011.2 |
| 20260902212458 | 28 | 222 | 0.0 | 8.0 | 0.00 | 0.00 | 0.00 | 77 | 1011.1 |
| 20260902211958 | 28 | 239 | 1.6 | 8.0 | 0.00 | 0.00 | 0.00 | 76 | 1011.0 |
| 20260902211458 | 28 | 254 | 0.0 | 4.8 | 0.00 | 0.00 | 0.00 | 79 | 1011.1 |
| 20260902210958 | 28 | 197 | 1.6 | 9.7 | 0.00 | 0.00 | 0.00 | 79 | 1011.1 |
| 20260902210458 | 28 | 284 | 1.6 | 16.1 | 0.00 | 0.00 | 0.00 | 77 | 1011.6 |
| 20260902210000 | 28 | 199 | 4.8 | 17.7 | 0.00 | 0.00 | 0.00 | 74 | 1012.1 |
| 20260902205459 | 29 | 334 | 3.2 | 9.7 | 0.00 | 0.00 | 0.00 | 72 | 1012.0 |
| 20260902205000 | 29 | 340 | 4.8 | 9.7 | 0.00 | 0.00 | 0.00 | 71 | 1011.6 |
| 20260902204459 | 30 | 324 | 1.6 | 11.3 | 0.00 | 0.00 | 0.00 | 72 | 1011.4 |
| 20260902203959 | 30 | 297 | 3.2 | 11.3 | 0.00 | 0.00 | 0.00 | 70 | 1011.3 |
| 20260902203459 | 30 | 292 | 3.2 | 12.9 | 0.00 | 0.00 | 0.00 | 71 | 1011.2 |
| 20260902203000 | 30 | 337 | 3.2 | 12.9 | 0.00 | 0.00 | 0.00 | 71 | 1011.2 |
| 20260902202459 | 31 | 317 | 4.8 | 9.7 | 0.00 | 0.00 | 0.00 | 72 | 1011.4 |
| 20260902201959 | 31 | 284 | 1.6 | 11.3 | 0.00 | 0.00 | 0.00 | 74 | 1011.3 |
| 20260902201459 | 31 | 244 | 3.2 | 9.7 | 0.00 | 0.00 | 0.00 | 74 | 1011.4 |
| 20260902200959 | 31 | 204 | 1.6 | 9.7 | 0.00 | 0.00 | 0.00 | 72 | 1011.4 |
| 20260902200459 | 31 | 290 | 3.2 | 9.7 | 0.00 | 0.00 | 0.00 | 72 | 1011.4 |
| 20260902200000 | 31 | 343 | 3.2 | 8.0 | 0.00 | 0.00 | 0.00 | 73 | 1011.4 |
| 20260902195458 | 31 | 245 | 1.6 | 8.0 | 0.00 | 0.00 | 0.00 | 71 | 1011.4 |
| 20260902194958 | 31 | 255 | 1.6 | 8.0 | 0.00 | 0.00 | 0.00 | 71 | 1011.4 |
| 20260902194458 | 31 | 230 | 3.2 | 11.3 | 0.00 | 0.00 | 0.00 | 70 | 1011.2 |
| 20260902193957 | 32 | 196 | 3.2 | 8.0 | 0.00 | 0.00 | 0.00 | 72 | 1011.3 |
| 20260902193458 | 32 | 295 | 3.2 | 14.5 | 0.00 | 0.00 | 0.00 | 72 | 1011.4 |
| 20260902192958 | 32 | 230 | 3.2 | 14.5 | 0.00 | 0.00 | 0.00 | 70 | 1011.6 |
| 20260902192458 | 32 | 297 | 3.2 | 9.7 | 0.00 | 0.00 | 0.00 | 70 | 1011.6 |
| 20260902191958 | 31 | 320 | 1.6 | 11.3 | 0.00 | 0.00 | 0.00 | 74 | 1011.7 |
| 20260902191459 | 31 | 296 | 1.6 | 11.3 | 0.00 | 0.00 | 0.00 | 73 | 1011.7 |
| 20260902190958 | 31 | 235 | 1.6 | 8.0 | 0.00 | 0.00 | 0.00 | 73 | 1011.8 |